createdAt,value
2018-07-11T00:00:15.638Z,1.77
2018-07-11T00:02:44.185Z,1.60
2018-07-11T00:05:12.770Z,1.73
2018-07-11T00:07:41.317Z,1.50
2018-07-11T00:10:09.896Z,1.40
2018-07-11T00:12:38.456Z,1.53
2018-07-11T00:15:07.059Z,1.37
2018-07-11T00:17:35.603Z,1.30
2018-07-11T00:20:04.285Z,2.07
2018-07-11T00:22:32.855Z,1.50
2018-07-11T00:25:01.525Z,1.50
2018-07-11T00:27:30.090Z,2.00
2018-07-11T00:29:58.705Z,1.70
2018-07-11T00:32:27.905Z,1.30
2018-07-11T00:34:56.546Z,1.60
2018-07-11T00:37:25.280Z,2.90
2018-07-11T00:39:53.908Z,1.80
2018-07-11T00:42:22.496Z,2.10
2018-07-11T00:44:51.098Z,1.53
2018-07-11T00:47:19.767Z,1.50
2018-07-11T00:49:48.301Z,1.70
2018-07-11T00:52:16.932Z,1.80
2018-07-11T00:54:45.612Z,1.50
2018-07-11T00:57:14.285Z,1.80
2018-07-11T00:59:42.902Z,1.90
2018-07-11T01:02:11.595Z,1.63
2018-07-11T01:04:40.762Z,1.60
2018-07-11T01:07:09.422Z,1.40
2018-07-11T01:09:41.640Z,1.80
2018-07-11T01:12:10.269Z,1.60
2018-07-11T01:14:38.818Z,2.10
2018-07-11T01:17:11.675Z,1.47
2018-07-11T01:19:40.339Z,1.60
2018-07-11T01:22:08.905Z,1.70
2018-07-11T01:24:37.481Z,1.93
2018-07-11T01:27:05.992Z,1.50
2018-07-11T01:29:34.627Z,1.60
2018-07-11T01:32:03.150Z,1.80
2018-07-11T01:34:31.773Z,1.37
2018-07-11T01:37:00.651Z,1.67
2018-07-11T01:39:29.233Z,1.80
2018-07-11T01:41:57.890Z,1.83
2018-07-11T01:44:26.472Z,1.93
2018-07-11T01:46:55.107Z,2.10
2018-07-11T01:49:23.775Z,1.60
2018-07-11T01:51:58.214Z,1.60
2018-07-11T01:54:27.652Z,2.17
2018-07-11T01:56:56.264Z,1.50
2018-07-11T01:59:26.057Z,1.83
2018-07-11T02:01:54.839Z,1.67
2018-07-11T02:04:23.507Z,1.67
2018-07-11T02:06:52.190Z,1.43
2018-07-11T02:09:20.895Z,1.60
2018-07-11T02:11:49.476Z,1.63
2018-07-11T02:14:18.135Z,1.50
2018-07-11T02:16:46.790Z,1.80
2018-07-11T02:19:15.923Z,1.97
2018-07-11T02:21:44.724Z,1.50
2018-07-11T02:24:13.395Z,1.70
2018-07-11T02:26:42.044Z,1.80
2018-07-11T02:29:10.676Z,1.37
2018-07-11T02:31:39.344Z,1.57
2018-07-11T02:34:07.910Z,1.53
2018-07-11T02:36:36.467Z,1.80
2018-07-11T02:39:05.813Z,1.53
2018-07-11T02:41:34.391Z,1.30
2018-07-11T02:44:03.335Z,1.87
2018-07-11T02:46:36.984Z,1.70
2018-07-11T02:49:05.654Z,1.43
2018-07-11T02:51:34.184Z,1.50
2018-07-11T02:54:02.876Z,1.43
2018-07-11T02:56:31.429Z,1.60
2018-07-11T02:59:00.102Z,1.30
2018-07-11T03:01:28.723Z,1.70
2018-07-11T03:03:57.294Z,1.60
2018-07-11T03:06:25.886Z,1.67
2018-07-11T03:08:54.432Z,1.47
2018-07-11T03:11:22.979Z,1.30
2018-07-11T03:13:51.980Z,1.70
2018-07-11T03:16:20.519Z,1.40
2018-07-11T03:18:49.080Z,1.40
2018-07-11T03:21:17.727Z,1.30
2018-07-11T03:23:46.267Z,1.57
2018-07-11T03:26:14.866Z,1.60
2018-07-11T03:28:43.440Z,1.33
2018-07-11T03:31:11.961Z,1.50
2018-07-11T03:33:40.518Z,1.23
2018-07-11T03:36:09.053Z,1.40
2018-07-11T03:38:37.559Z,1.50
2018-07-11T03:41:06.070Z,1.50
2018-07-11T03:43:34.674Z,2.10
2018-07-11T03:46:03.370Z,1.50
2018-07-11T03:48:31.880Z,1.60
2018-07-11T03:51:00.406Z,1.27
2018-07-11T03:53:29.024Z,1.77
2018-07-11T03:55:57.555Z,1.20
2018-07-11T03:58:26.059Z,1.27
2018-07-11T04:00:54.597Z,1.87
2018-07-11T04:03:23.187Z,1.50
2018-07-11T04:05:51.704Z,1.40
2018-07-11T04:08:20.211Z,1.43
2018-07-11T04:10:48.737Z,2.00
2018-07-11T04:13:18.603Z,2.03
2018-07-11T04:15:47.146Z,1.50
2018-07-11T04:18:21.092Z,2.03
2018-07-11T04:20:49.648Z,1.53
2018-07-11T04:23:18.156Z,1.87
2018-07-11T04:25:46.775Z,1.60
2018-07-11T04:28:15.325Z,1.50
2018-07-11T04:30:43.853Z,1.43
2018-07-11T04:33:12.471Z,2.17
2018-07-11T04:35:41.112Z,1.43
2018-07-11T04:38:09.637Z,1.70
2018-07-11T04:40:38.368Z,1.47
2018-07-11T04:43:07.030Z,1.67
2018-07-11T04:45:35.837Z,2.00
2018-07-11T04:48:04.896Z,1.57
2018-07-11T04:50:34.019Z,1.40
2018-07-11T04:53:06.321Z,1.80
2018-07-11T04:55:34.952Z,1.47
2018-07-11T04:58:03.484Z,1.67
2018-07-11T05:00:32.023Z,1.47
2018-07-11T05:03:00.826Z,1.43
2018-07-11T05:05:29.355Z,1.60
2018-07-11T05:07:58.100Z,1.60
2018-07-11T05:10:26.627Z,1.70
2018-07-11T05:12:55.119Z,1.57
2018-07-11T05:15:23.663Z,1.63
2018-07-11T05:17:52.208Z,1.67
2018-07-11T05:20:20.713Z,1.40
2018-07-11T05:22:49.788Z,2.00
2018-07-11T05:25:18.312Z,1.60
2018-07-11T05:27:46.865Z,1.97
2018-07-11T05:30:15.394Z,1.57
2018-07-11T05:32:43.902Z,2.00
2018-07-11T05:35:12.418Z,1.40
2018-07-11T05:37:40.931Z,1.70
2018-07-11T05:40:09.569Z,1.90
2018-07-11T05:42:38.112Z,1.60
2018-07-11T05:45:06.692Z,1.60
2018-07-11T05:47:35.190Z,1.40
2018-07-11T05:50:03.745Z,2.13
2018-07-11T05:52:32.256Z,1.73
2018-07-11T05:55:01.263Z,1.67
2018-07-11T05:57:29.772Z,1.97
2018-07-11T05:59:58.300Z,2.00
2018-07-11T06:02:26.811Z,1.60
2018-07-11T06:04:55.363Z,1.60
2018-07-11T06:07:23.857Z,2.03
2018-07-11T06:09:52.416Z,1.90
2018-07-11T06:12:20.956Z,2.37
2018-07-11T06:14:49.679Z,1.60
2018-07-11T06:17:18.300Z,2.00
2018-07-11T06:19:46.961Z,1.80
2018-07-11T06:22:15.507Z,1.93
2018-07-11T06:24:44.079Z,1.97
2018-07-11T06:27:13.147Z,2.10
2018-07-11T06:29:41.647Z,2.40
2018-07-11T06:32:10.167Z,2.10
2018-07-11T06:34:38.724Z,2.13
2018-07-11T06:37:07.211Z,1.80
2018-07-11T06:39:35.734Z,2.13
2018-07-11T06:42:04.259Z,2.90
2018-07-11T06:44:32.884Z,1.63
2018-07-11T06:47:05.635Z,1.80
2018-07-11T06:49:34.143Z,2.40
2018-07-11T06:52:02.733Z,1.80
2018-07-11T06:54:31.246Z,2.03
2018-07-11T06:56:59.776Z,1.53
2018-07-11T06:59:28.619Z,1.90
2018-07-11T07:01:57.156Z,2.00
2018-07-11T07:04:25.702Z,2.10
2018-07-11T07:06:54.628Z,2.00
2018-07-11T07:09:23.186Z,2.30
2018-07-11T07:11:51.784Z,2.60
2018-07-11T07:14:20.300Z,2.30
2018-07-11T07:16:48.811Z,2.17
2018-07-11T07:19:17.319Z,1.70
2018-07-11T07:21:45.876Z,2.20
2018-07-11T07:24:14.393Z,2.83
2018-07-11T07:26:42.958Z,1.80
2018-07-11T07:29:11.565Z,1.90
2018-07-11T07:31:40.260Z,2.00
2018-07-11T07:34:08.805Z,2.07
2018-07-11T07:36:37.360Z,2.03
2018-07-11T07:39:06.004Z,1.93
2018-07-11T07:41:34.735Z,2.10
2018-07-11T07:44:03.459Z,2.40
2018-07-11T07:46:32.212Z,1.97
2018-07-11T07:49:00.904Z,2.00
2018-07-11T07:51:29.651Z,1.93
2018-07-11T07:53:58.316Z,2.17
2018-07-11T07:56:26.924Z,2.20
2018-07-11T07:58:55.578Z,1.97
2018-07-11T08:01:24.147Z,1.90
2018-07-11T08:03:52.856Z,2.10
2018-07-11T08:06:21.438Z,1.90
2018-07-11T08:08:50.011Z,2.30
2018-07-11T08:11:18.510Z,2.10
2018-07-11T08:13:47.025Z,2.10
2018-07-11T08:16:15.543Z,2.20
2018-07-11T08:18:44.143Z,2.80
2018-07-11T08:21:12.694Z,2.30
2018-07-11T08:23:46.516Z,2.30
2018-07-11T08:26:20.944Z,2.30
2018-07-11T08:28:55.279Z,1.93
2018-07-11T08:31:43.204Z,1.80
2018-07-11T08:36:23.878Z,1.97
2018-07-11T08:38:57.718Z,1.70
2018-07-11T08:41:31.864Z,1.93
2018-07-11T08:44:05.852Z,1.80
2018-07-11T08:46:39.859Z,2.40
2018-07-11T08:49:13.983Z,2.20
2018-07-11T08:51:51.675Z,2.03
2018-07-11T08:54:25.727Z,1.87
2018-07-11T08:56:59.590Z,1.80
2018-07-11T09:00:36.746Z,1.83
2018-07-11T09:03:10.640Z,2.00
2018-07-11T09:05:44.709Z,2.30
2018-07-11T09:10:24.035Z,2.00
2018-07-11T09:15:03.550Z,2.00
2018-07-11T09:17:36.659Z,1.80
2018-07-11T09:22:18.527Z,2.23
2018-07-11T09:24:48.231Z,1.80
2018-07-11T09:27:16.834Z,1.90
2018-07-11T09:29:46.206Z,1.80
2018-07-11T09:32:15.307Z,1.90
2018-07-11T09:34:44.305Z,2.17
2018-07-11T09:37:12.873Z,2.03
2018-07-11T09:39:42.108Z,1.77
2018-07-11T09:42:10.583Z,2.23
2018-07-11T09:44:39.287Z,2.10
2018-07-11T09:47:13.057Z,1.70
2018-07-11T09:49:41.771Z,1.53
2018-07-11T09:52:10.470Z,2.17
2018-07-11T09:54:39.084Z,1.57
2018-07-11T09:57:07.646Z,1.53
2018-07-11T09:59:36.320Z,2.00
2018-07-11T10:02:04.930Z,2.10
2018-07-11T10:04:33.587Z,1.70
2018-07-11T10:07:02.284Z,2.20
2018-07-11T10:09:30.904Z,1.77
2018-07-11T10:11:59.662Z,1.70
2018-07-11T10:14:28.352Z,2.07
2018-07-11T10:16:56.886Z,1.73
2018-07-11T10:19:25.486Z,1.83
2018-07-11T10:21:54.056Z,2.23
2018-07-11T10:24:22.692Z,1.97
2018-07-11T10:26:51.306Z,2.00
2018-07-11T10:29:19.897Z,2.30
2018-07-11T10:31:48.447Z,1.70
2018-07-11T10:34:17.052Z,1.80
2018-07-11T10:36:45.580Z,1.93
2018-07-11T10:39:14.089Z,1.70
2018-07-11T10:41:42.616Z,1.80
2018-07-11T10:44:11.147Z,2.20
2018-07-11T10:46:39.707Z,1.70
2018-07-11T10:49:08.287Z,2.13
2018-07-11T10:51:36.838Z,1.67
2018-07-11T10:54:05.475Z,2.13
2018-07-11T10:56:34.021Z,1.60
2018-07-11T10:59:02.611Z,1.80
2018-07-11T11:01:31.133Z,1.73
2018-07-11T11:03:59.676Z,1.50
2018-07-11T11:06:28.224Z,1.90
2018-07-11T11:08:56.792Z,2.00
2018-07-11T11:11:25.344Z,1.43
2018-07-11T11:13:53.918Z,1.60
2018-07-11T11:16:22.536Z,1.73
2018-07-11T11:18:51.280Z,1.77
2018-07-11T11:21:19.772Z,1.87
2018-07-11T11:23:48.325Z,2.00
2018-07-11T11:26:16.927Z,2.00
2018-07-11T11:28:45.512Z,2.10
2018-07-11T11:31:14.239Z,2.10
2018-07-11T11:33:42.830Z,1.83
2018-07-11T11:36:11.503Z,2.00
2018-07-11T11:38:40.167Z,2.03
2018-07-11T11:41:08.944Z,1.90
2018-07-11T11:43:37.579Z,1.90
2018-07-11T11:46:06.432Z,1.77
2018-07-11T11:48:35.400Z,1.67
2018-07-11T11:51:04.064Z,1.80
2018-07-11T11:53:32.835Z,1.63
2018-07-11T11:56:01.457Z,2.40
2018-07-11T11:58:30.040Z,1.93
2018-07-11T12:00:58.571Z,2.13
2018-07-11T12:03:27.145Z,2.10
2018-07-11T12:05:55.762Z,1.93
2018-07-11T12:08:24.330Z,2.00
2018-07-11T12:10:53.019Z,1.97
2018-07-11T12:13:21.518Z,1.90
2018-07-11T12:15:50.091Z,1.87
2018-07-11T12:18:18.612Z,1.73
2018-07-11T12:20:47.251Z,1.97
2018-07-11T12:23:16.983Z,2.07
2018-07-11T12:26:20.069Z,1.90
2018-07-11T12:28:48.651Z,2.00
2018-07-11T12:31:17.195Z,2.20
2018-07-11T12:33:45.762Z,2.43
2018-07-11T12:36:14.344Z,2.00
2018-07-11T12:38:43.636Z,1.90
2018-07-11T12:41:12.412Z,2.33
2018-07-11T12:43:41.004Z,2.10
2018-07-11T12:46:09.617Z,2.10
2018-07-11T12:48:43.420Z,2.03
2018-07-11T12:51:13.985Z,2.10
2018-07-11T12:53:42.736Z,2.60
2018-07-11T12:56:11.420Z,2.00
2018-07-11T12:58:40.120Z,2.20
2018-07-11T13:01:08.804Z,1.70
2018-07-11T13:03:37.324Z,1.90
2018-07-11T13:06:05.912Z,2.07
2018-07-11T13:08:34.572Z,2.20
2018-07-11T13:11:03.268Z,1.93
2018-07-11T13:13:31.884Z,1.90
2018-07-11T13:16:00.463Z,2.00
2018-07-11T13:18:28.996Z,2.00
2018-07-11T13:20:57.637Z,1.77
2018-07-11T13:23:26.249Z,1.80
2018-07-11T13:25:54.974Z,1.93
2018-07-11T13:28:23.840Z,1.80
2018-07-11T13:30:52.438Z,1.60
2018-07-11T13:33:21.236Z,1.70
2018-07-11T13:35:49.783Z,1.90
2018-07-11T13:38:18.359Z,1.93
2018-07-11T13:40:47.052Z,1.87
2018-07-11T13:43:15.675Z,2.30
2018-07-11T13:45:44.406Z,1.83
2018-07-11T13:48:13.058Z,2.03
2018-07-11T13:50:41.615Z,1.70
2018-07-11T13:53:10.251Z,2.00
2018-07-11T13:55:38.882Z,2.40
2018-07-11T13:58:08.060Z,2.47
2018-07-11T14:00:36.650Z,1.90
2018-07-11T14:03:05.315Z,1.97
2018-07-11T14:05:34.033Z,1.60
2018-07-11T14:08:02.617Z,1.97
2018-07-11T14:10:31.253Z,2.20
2018-07-11T14:12:59.847Z,1.83
2018-07-11T14:15:28.763Z,2.40
2018-07-11T14:17:57.532Z,2.17
2018-07-11T14:20:26.336Z,2.13
2018-07-11T14:22:55.509Z,1.93
2018-07-11T14:25:24.096Z,2.00
2018-07-11T14:27:52.772Z,1.73
2018-07-11T14:30:24.598Z,2.27
2018-07-11T14:32:56.615Z,1.87
2018-07-11T14:35:25.455Z,3.03
2018-07-11T14:37:54.007Z,2.00
2018-07-11T14:40:22.573Z,2.30
2018-07-11T14:42:51.247Z,2.20
2018-07-11T14:45:19.903Z,2.00
2018-07-11T14:47:53.653Z,1.97
2018-07-11T14:50:22.211Z,1.90
2018-07-11T14:52:50.839Z,1.83
2018-07-11T14:55:20.199Z,1.80
2018-07-11T14:57:49.776Z,2.30
2018-07-11T15:00:18.448Z,1.97
2018-07-11T15:02:47.646Z,2.00
2018-07-11T15:05:16.253Z,1.87
2018-07-11T15:07:44.999Z,1.87
2018-07-11T15:10:13.933Z,1.40
2018-07-11T15:12:42.557Z,1.70
2018-07-11T15:15:11.151Z,1.50
2018-07-11T15:17:39.691Z,3.10
2018-07-11T15:20:08.366Z,1.90
2018-07-11T15:22:37.071Z,1.50
2018-07-11T15:25:05.767Z,1.50
2018-07-11T15:27:34.304Z,1.90
2018-07-11T15:30:02.979Z,1.60
2018-07-11T15:32:31.693Z,1.67
2018-07-11T15:35:00.435Z,1.63
2018-07-11T15:37:29.022Z,1.70
2018-07-11T15:39:57.705Z,1.73
2018-07-11T15:42:26.393Z,1.60
2018-07-11T15:44:55.466Z,1.60
2018-07-11T15:47:24.520Z,1.73
2018-07-11T15:49:54.262Z,1.70
2018-07-11T15:52:24.605Z,2.20
2018-07-11T15:54:56.155Z,1.73
2018-07-11T15:57:26.071Z,1.87
2018-07-11T15:59:57.101Z,1.97
2018-07-11T16:02:25.888Z,1.50
2018-07-11T16:04:54.523Z,1.47
2018-07-11T16:07:23.495Z,1.80
2018-07-11T16:09:55.976Z,1.60
2018-07-11T16:12:25.175Z,1.70
2018-07-11T16:14:54.008Z,1.93
2018-07-11T16:17:23.243Z,1.90
2018-07-11T16:19:51.991Z,1.63
2018-07-11T16:22:21.122Z,1.60
2018-07-11T16:24:50.004Z,1.80
2018-07-11T16:27:19.231Z,2.23
2018-07-11T16:29:47.861Z,1.67
2018-07-11T16:32:16.424Z,1.47
2018-07-11T16:34:45.358Z,1.60
2018-07-11T16:37:13.954Z,3.67
2018-07-11T16:39:42.670Z,1.93
2018-07-11T16:42:11.172Z,1.97
2018-07-11T16:44:39.987Z,1.87
2018-07-11T16:47:08.608Z,1.60
2018-07-11T16:49:39.345Z,1.73
2018-07-11T16:52:07.983Z,2.30
2018-07-11T16:54:36.634Z,1.53
2018-07-11T16:57:05.880Z,1.20
2018-07-11T16:59:44.983Z,1.70
2018-07-11T17:02:16.763Z,1.80
2018-07-11T17:04:45.448Z,3.00
2018-07-11T17:07:15.076Z,3.20
2018-07-11T17:09:44.379Z,1.93
2018-07-11T17:12:13.941Z,2.03
2018-07-11T17:14:44.466Z,2.07
2018-07-11T17:17:13.056Z,1.83
2018-07-11T17:20:14.300Z,2.10
2018-07-11T17:22:50.027Z,2.27
2018-07-11T17:25:20.073Z,2.23
2018-07-11T17:27:51.793Z,1.83
2018-07-11T17:30:20.463Z,2.00
2018-07-11T17:32:49.115Z,2.17
2018-07-11T17:35:17.708Z,2.10
2018-07-11T17:37:46.367Z,1.80
2018-07-11T17:40:15.060Z,1.90
2018-07-11T17:42:44.571Z,1.90
2018-07-11T17:45:21.596Z,2.00
2018-07-11T17:47:55.799Z,2.67
2018-07-11T17:50:27.204Z,1.80
2018-07-11T17:53:01.622Z,1.80
2018-07-11T17:55:32.922Z,1.97
2018-07-11T17:58:05.120Z,2.53
2018-07-11T18:00:34.846Z,1.80
2018-07-11T18:03:41.107Z,2.27
2018-07-11T18:06:15.651Z,1.90
2018-07-11T18:08:56.426Z,2.70
2018-07-11T18:11:29.966Z,2.30
2018-07-11T18:13:58.654Z,2.07
2018-07-11T18:16:32.944Z,1.93
2018-07-11T18:19:06.857Z,1.93
2018-07-11T18:21:41.095Z,2.00
2018-07-11T18:24:32.088Z,2.67
2018-07-11T18:27:10.877Z,2.03
2018-07-11T18:29:44.140Z,2.10
2018-07-11T18:32:18.048Z,2.00
2018-07-11T18:34:52.027Z,2.07
2018-07-11T18:38:23.691Z,2.27
2018-07-11T18:41:08.841Z,1.90
2018-07-11T18:43:57.139Z,2.27
2018-07-11T18:46:30.408Z,2.17
2018-07-11T18:49:01.086Z,2.20
2018-07-11T18:51:30.521Z,2.40
2018-07-11T18:54:06.898Z,2.17
2018-07-11T18:56:41.654Z,2.30
2018-07-11T19:00:16.119Z,2.53
2018-07-11T19:03:56.495Z,2.50
2018-07-11T19:06:28.896Z,2.63
2018-07-11T19:09:13.687Z,2.30
2018-07-11T19:11:47.703Z,1.90
2018-07-11T19:14:16.990Z,3.27
2018-07-11T19:16:50.904Z,2.27
2018-07-11T19:19:24.740Z,2.27
2018-07-11T19:21:57.879Z,2.30
2018-07-11T19:26:34.516Z,2.17
2018-07-11T19:30:08.634Z,2.30
2018-07-11T19:33:42.801Z,2.43
2018-07-11T19:36:18.795Z,2.30
2018-07-11T19:38:55.912Z,2.50
2018-07-11T19:41:26.440Z,2.80
2018-07-11T19:46:05.184Z,2.33
2018-07-11T19:50:43.776Z,3.07
2018-07-11T19:55:21.523Z,2.73
2018-07-11T19:57:50.125Z,2.40
2018-07-11T20:00:18.796Z,2.80
2018-07-11T20:02:47.381Z,2.63
2018-07-11T20:05:15.900Z,2.40
2018-07-11T20:07:44.564Z,2.33
2018-07-11T20:10:13.147Z,2.30
2018-07-11T20:12:41.748Z,2.50
2018-07-11T20:15:10.812Z,2.50
2018-07-11T20:17:39.417Z,2.70
2018-07-11T20:20:08.244Z,2.73
2018-07-11T20:22:36.887Z,2.23
2018-07-11T20:25:05.531Z,3.40
2018-07-11T20:27:34.104Z,2.93
2018-07-11T20:30:02.754Z,2.67
2018-07-11T20:32:31.306Z,2.60
2018-07-11T20:34:59.834Z,2.70
2018-07-11T20:37:28.347Z,2.70
2018-07-11T20:39:56.980Z,3.37
2018-07-11T20:42:25.563Z,2.50
2018-07-11T20:44:54.214Z,2.60
2018-07-11T20:47:22.764Z,2.93
2018-07-11T20:49:51.388Z,2.27
2018-07-11T20:52:19.931Z,2.93
2018-07-11T20:54:48.488Z,2.50
2018-07-11T20:57:17.014Z,2.50
2018-07-11T20:59:50.983Z,2.90
2018-07-11T21:02:24.783Z,2.40
2018-07-11T21:06:00.393Z,2.73
2018-07-11T21:08:35.638Z,2.87
2018-07-11T21:11:42.696Z,2.90
2018-07-11T21:14:16.479Z,2.50
2018-07-11T21:16:50.712Z,2.50
2018-07-11T21:19:19.278Z,3.30
2018-07-11T21:21:48.487Z,2.60
2018-07-11T21:24:17.008Z,2.50
2018-07-11T21:26:45.520Z,2.63
2018-07-11T21:29:14.034Z,2.27
2018-07-11T21:31:42.671Z,4.20
2018-07-11T21:34:11.208Z,2.50
2018-07-11T21:36:39.714Z,2.30
2018-07-11T21:39:08.450Z,3.07
2018-07-11T21:41:37.008Z,5.70
2018-07-11T21:44:05.549Z,3.17
2018-07-11T21:46:34.091Z,2.77
2018-07-11T21:49:02.638Z,2.90
2018-07-11T21:51:31.168Z,2.90
2018-07-11T21:54:00.123Z,2.80
2018-07-11T21:56:28.623Z,2.80
2018-07-11T21:58:57.138Z,3.30
2018-07-11T22:01:25.678Z,3.27
2018-07-11T22:03:54.183Z,2.87
2018-07-11T22:06:22.715Z,3.13
2018-07-11T22:08:51.277Z,2.70
2018-07-11T22:11:19.820Z,2.60
2018-07-11T22:13:48.344Z,2.63
2018-07-11T22:16:16.928Z,2.43
2018-07-11T22:18:46.310Z,2.27
2018-07-11T22:21:15.105Z,2.57
2018-07-11T22:23:42.603Z,2.60
2018-07-11T22:26:10.140Z,3.00
2018-07-11T22:28:37.639Z,2.67
2018-07-11T22:31:05.154Z,2.20
2018-07-11T22:33:32.747Z,2.90
2018-07-11T22:36:00.261Z,3.07
2018-07-11T22:38:27.942Z,2.67
2018-07-11T22:40:55.431Z,2.50
2018-07-11T22:43:22.943Z,2.07
2018-07-11T22:45:50.435Z,2.50
2018-07-11T22:48:17.919Z,2.30
2018-07-11T22:50:45.424Z,2.33
2018-07-11T22:53:12.937Z,2.20
2018-07-11T22:55:40.651Z,2.23
2018-07-11T22:58:08.312Z,2.40
2018-07-11T23:00:35.812Z,2.57
2018-07-11T23:03:03.322Z,2.90
2018-07-11T23:05:30.868Z,2.30
2018-07-11T23:07:58.373Z,2.80
2018-07-11T23:10:25.890Z,3.00
2018-07-11T23:12:53.385Z,2.67
2018-07-11T23:15:20.881Z,2.87
2018-07-11T23:17:48.377Z,2.70
2018-07-11T23:20:16.827Z,2.70
2018-07-11T23:22:44.331Z,2.77
2018-07-11T23:25:11.848Z,3.30
2018-07-11T23:27:39.362Z,2.57
2018-07-11T23:30:06.909Z,2.60
2018-07-11T23:32:34.409Z,2.90
2018-07-11T23:35:01.917Z,2.50
2018-07-11T23:37:29.419Z,2.80
2018-07-11T23:39:56.917Z,2.57
2018-07-11T23:42:24.403Z,2.47
2018-07-11T23:44:51.894Z,2.43
2018-07-11T23:47:19.404Z,2.73
2018-07-11T23:49:46.924Z,3.20
2018-07-11T23:52:14.412Z,2.50
2018-07-11T23:54:41.911Z,2.50
2018-07-11T23:57:09.403Z,2.30
2018-07-11T23:59:36.901Z,2.37
